Time;durP1;ratioP1;P1;durP2;ratioP2;P2;SDS_P1;SDS_P2;PMS_P1;PMS_P2;Temp;Humidity;BMP_temperature;BMP_pressure;BME280_temperature;BME280_humidity;BME280_pressure;Samples;Min_cycle;Max_cycle;Signal;HPM_P1;HPM_P2
2021/04/18 00:01:32;;;;;;;12.32;5.38;;;;;;;-143.98;100.00;68091.63;5076826;28;20056;-81
2021/04/18 00:03:59;;;;;;;9.18;4.70;;;;;;;-143.98;100.00;68091.63;5077020;28;20072;-81
2021/04/18 00:06:25;;;;;;;8.80;4.63;;;;;;;-143.98;100.00;68091.63;5060158;28;20059;-81
2021/04/18 00:08:54;;;;;;;13.80;4.55;;;;;;;-143.98;100.00;68091.63;5075861;28;20060;-81
2021/04/18 00:11:24;;;;;;;12.38;5.03;;;;;;;-143.98;100.00;68091.63;5058339;28;20117;-81
2021/04/18 00:13:50;;;;;;;10.55;5.35;;;;;;;-143.98;100.00;68091.63;5042937;28;20084;-81
2021/04/18 00:16:17;;;;;;;10.85;4.20;;;;;;;-143.98;100.00;68091.63;5059555;28;20063;-81
2021/04/18 00:18:44;;;;;;;12.73;4.85;;;;;;;-143.98;100.00;68091.63;5076056;28;20060;-81
2021/04/18 00:21:11;;;;;;;13.55;5.05;;;;;;;-143.98;100.00;68091.63;5076485;28;20165;-81
2021/04/18 00:23:37;;;;;;;10.00;5.15;;;;;;;-143.98;100.00;68091.63;5043275;28;20064;-81
2021/04/18 00:26:05;;;;;;;10.27;4.60;;;;;;;-143.98;100.00;68091.63;5047571;28;20113;-80
2021/04/18 00:28:34;;;;;;;9.93;4.72;;;;;;;-143.98;100.00;68091.63;5050974;28;20122;-80
2021/04/18 00:31:00;;;;;;;13.50;5.43;;;;;;;-143.98;100.00;68091.63;5067169;28;20053;-81
2021/04/18 00:33:27;;;;;;;13.32;4.80;;;;;;;-143.98;100.00;68091.63;5040087;28;20057;-81
2021/04/18 00:35:54;;;;;;;12.55;5.40;;;;;;;-143.98;100.00;68091.63;5039216;28;20059;-81
2021/04/18 00:38:20;;;;;;;13.15;5.55;;;;;;;-143.98;100.00;68091.63;5023678;28;20052;-80
2021/04/18 00:40:47;;;;;;;11.25;5.30;;;;;;;-143.98;100.00;68091.63;5039398;28;20061;-80
2021/04/18 00:43:16;;;;;;;14.52;5.72;;;;;;;-143.98;100.00;68091.63;5038530;28;20045;-81
2021/04/18 00:45:42;;;;;;;10.55;5.28;;;;;;;-143.98;100.00;68091.63;5038611;28;20057;-81
2021/04/18 00:48:09;;;;;;;9.68;4.72;;;;;;;-143.98;100.00;68091.63;5039328;28;20057;-81
2021/04/18 00:50:37;;;;;;;12.52;5.38;;;;;;;-143.98;100.00;68091.63;5056011;28;20056;-81
2021/04/18 00:53:06;;;;;;;11.00;4.40;;;;;;;-143.98;100.00;68091.63;5038521;28;20071;-81
2021/04/18 00:55:35;;;;;;;11.60;4.75;;;;;;;-143.98;100.00;68091.63;5022001;28;20048;-81
2021/04/18 00:58:08;;;;;;;14.52;5.13;;;;;;;-143.98;100.00;68091.63;5037248;28;20053;-81
2021/04/18 01:00:36;;;;;;;9.25;4.80;;;;;;;-143.98;100.00;68091.63;5038686;28;20421;-80
2021/04/18 01:03:04;;;;;;;11.32;4.63;;;;;;;-143.98;100.00;68091.63;5021622;28;20093;-81
2021/04/18 01:05:30;;;;;;;14.52;5.35;;;;;;;-143.98;100.00;68091.63;5023079;28;20629;-81
2021/04/18 01:07:57;;;;;;;17.33;4.78;;;;;;;-143.98;100.00;68091.63;5040894;28;20060;-81
2021/04/18 01:10:23;;;;;;;10.05;5.05;;;;;;;-143.98;100.00;68091.63;5042646;28;20061;-81
2021/04/18 01:12:50;;;;;;;14.10;5.45;;;;;;;-143.98;100.00;68091.63;5044000;28;20060;-81
2021/04/18 01:15:16;;;;;;;16.20;5.28;;;;;;;-143.98;100.00;68091.63;5043623;28;20045;-81
2021/04/18 01:17:43;;;;;;;11.30;5.30;;;;;;;-143.98;100.00;68091.63;5060328;28;20461;-81
2021/04/18 01:20:19;;;;;;;18.52;4.72;;;;;;;-143.98;100.00;68091.63;5071698;28;20045;-81
2021/04/18 01:22:47;;;;;;;10.77;4.65;;;;;;;-143.98;100.00;68091.63;5060581;28;20079;-81
2021/04/18 01:25:13;;;;;;;16.20;6.13;;;;;;;-143.98;100.00;68091.63;5028314;28;20064;-81
2021/04/18 01:27:43;;;;;;;13.88;5.60;;;;;;;-143.98;100.00;68091.63;5043779;28;20072;-82
2021/04/18 01:30:27;;;;;;;14.85;5.57;;;;;;;-143.98;100.00;68091.63;5027344;28;20064;-81
2021/04/18 01:32:58;;;;;;;9.80;5.95;;;;;;;-143.98;100.00;68091.63;5044280;28;20056;-81
2021/04/18 01:35:31;;;;;;;11.57;5.10;;;;;;;-143.98;100.00;68091.63;5026292;28;20106;-81
2021/04/18 01:37:58;;;;;;;9.27;5.18;;;;;;;-143.98;100.00;68091.63;5026361;28;20056;-81
2021/04/18 01:40:25;;;;;;;16.15;6.78;;;;;;;-143.98;100.00;68091.63;5041396;28;20106;-81
2021/04/18 01:42:54;;;;;;;11.07;5.18;;;;;;;-143.98;100.00;68091.63;5024476;28;20071;-81
2021/04/18 01:45:26;;;;;;;14.05;5.90;;;;;;;-143.98;100.00;68091.63;5041544;28;20116;-81
2021/04/18 01:47:52;;;;;;;11.00;5.53;;;;;;;-143.98;100.00;68091.63;5025265;28;20111;-81
2021/04/18 01:50:18;;;;;;;12.88;5.72;;;;;;;-143.98;100.00;68091.63;5026011;28;20057;-81
2021/04/18 01:52:46;;;;;;;18.40;5.75;;;;;;;-143.98;100.00;68091.63;5041218;28;20049;-81
2021/04/18 01:55:19;;;;;;;11.07;5.80;;;;;;;-143.98;100.00;68091.63;5025826;28;20559;-81
2021/04/18 01:57:45;;;;;;;13.95;5.47;;;;;;;-143.98;100.00;68091.63;5041559;28;20056;-81
2021/04/18 02:00:12;;;;;;;12.13;4.80;;;;;;;-143.98;100.00;68091.63;5041565;28;20060;-81
2021/04/18 02:02:39;;;;;;;13.25;5.45;;;;;;;-143.98;100.00;68091.63;5024621;28;20513;-81
2021/04/18 02:05:13;;;;;;;9.70;4.95;;;;;;;-143.98;100.00;68091.63;5059983;28;20071;-80
2021/04/18 02:07:40;;;;;;;12.32;5.20;;;;;;;-143.98;100.00;68091.63;5042060;28;20049;-81
2021/04/18 02:10:09;;;;;;;11.23;5.50;;;;;;;-143.98;100.00;68091.63;5025815;28;20134;-81
2021/04/18 02:12:36;;;;;;;12.57;6.15;;;;;;;-143.98;100.00;68091.63;5025808;28;20160;-82
2021/04/18 02:15:04;;;;;;;9.23;5.32;;;;;;;-143.98;100.00;68091.63;5030218;28;20084;-79
2021/04/18 02:17:51;;;;;;;12.18;5.93;;;;;;;-143.98;100.00;68091.63;5026684;28;20049;-81
2021/04/18 02:20:17;;;;;;;8.77;5.35;;;;;;;-143.98;100.00;68091.63;5051764;28;20468;-81
2021/04/18 02:22:44;;;;;;;10.25;6.40;;;;;;;-143.98;100.00;68091.63;5026498;28;20486;-81
2021/04/18 02:25:12;;;;;;;12.93;5.20;;;;;;;-143.98;100.00;68091.63;5027318;28;20080;-81
2021/04/18 02:27:47;;;;;;;13.00;6.03;;;;;;;-143.98;100.00;68091.63;5035758;28;20057;-80
2021/04/18 02:30:17;;;;;;;17.73;5.43;;;;;;;-143.98;100.00;68091.63;5039645;28;20072;-81
2021/04/18 02:32:44;;;;;;;12.85;5.72;;;;;;;-143.98;100.00;68091.63;5027846;28;20345;-81
2021/04/18 02:35:12;;;;;;;12.23;6.43;;;;;;;-143.98;100.00;68091.63;5025465;28;20748;-81
2021/04/18 02:37:41;;;;;;;13.88;5.18;;;;;;;-143.98;100.00;68091.63;5027351;28;20057;-81
2021/04/18 02:40:09;;;;;;;13.02;5.35;;;;;;;-143.98;100.00;68091.63;5020267;28;20067;-81
2021/04/18 02:42:36;;;;;;;14.45;6.35;;;;;;;-143.98;100.00;68091.63;5050424;28;20071;-81
2021/04/18 02:45:04;;;;;;;11.52;6.20;;;;;;;-143.98;100.00;68091.63;5048072;28;20114;-81
2021/04/18 02:47:32;;;;;;;10.55;5.60;;;;;;;-143.98;100.00;68091.63;5042567;28;20559;-81
2021/04/18 02:49:59;;;;;;;11.07;6.22;;;;;;;-143.98;100.00;68091.63;5045562;28;20128;-82
2021/04/18 02:52:27;;;;;;;14.63;5.80;;;;;;;-143.98;100.00;68091.63;5050449;28;20113;-81
2021/04/18 02:54:56;;;;;;;17.05;7.20;;;;;;;-143.98;100.00;68091.63;5053841;28;20102;-81
2021/04/18 02:57:23;;;;;;;14.77;6.28;;;;;;;-143.98;100.00;68091.63;5050929;28;20056;-82
2021/04/18 02:59:49;;;;;;;15.18;6.20;;;;;;;-143.98;100.00;68091.63;5042253;28;20143;-81
2021/04/18 03:02:15;;;;;;;14.05;6.40;;;;;;;-143.98;100.00;68091.63;5039389;28;20114;-81
2021/04/18 03:04:42;;;;;;;14.98;5.90;;;;;;;-143.98;100.00;68091.63;5040403;28;20060;-81
2021/04/18 03:07:09;;;;;;;13.20;5.45;;;;;;;-143.98;100.00;68091.63;5024053;28;20048;-81
2021/04/18 03:09:35;;;;;;;15.25;6.20;;;;;;;-143.98;100.00;68091.63;5023819;28;20052;-81
2021/04/18 03:12:05;;;;;;;13.35;6.25;;;;;;;-143.98;100.00;68091.63;5040704;28;20396;-81
2021/04/18 03:14:31;;;;;;;13.13;6.10;;;;;;;-143.98;100.00;68091.63;5041670;28;20076;-81
2021/04/18 03:16:57;;;;;;;14.27;6.07;;;;;;;-143.98;100.00;68091.63;5040517;28;20131;-81
2021/04/18 03:19:25;;;;;;;11.00;6.57;;;;;;;-143.98;100.00;68091.63;5041128;28;20052;-81
2021/04/18 03:21:51;;;;;;;10.80;5.95;;;;;;;-143.98;100.00;68091.63;5058058;28;20065;-81
2021/04/18 03:24:17;;;;;;;12.88;6.07;;;;;;;-143.98;100.00;68091.63;5023851;28;20076;-80
2021/04/18 03:26:43;;;;;;;11.82;5.53;;;;;;;-143.98;100.00;68091.63;5023621;28;20060;-80
2021/04/18 03:29:10;;;;;;;12.55;5.50;;;;;;;-143.98;100.00;68091.63;5023508;28;20049;-79
2021/04/18 03:31:37;;;;;;;14.95;5.63;;;;;;;-143.98;100.00;68091.63;5023227;28;20257;-80
2021/04/18 03:34:03;;;;;;;13.32;5.82;;;;;;;-143.98;100.00;68091.63;5023843;28;20060;-80
2021/04/18 03:36:30;;;;;;;11.40;6.25;;;;;;;-143.98;100.00;68091.63;5023064;28;20151;-81
2021/04/18 03:38:56;;;;;;;12.75;5.97;;;;;;;-143.98;100.00;68091.63;5040811;28;20088;-81
2021/04/18 03:41:23;;;;;;;8.60;5.75;;;;;;;-143.98;100.00;68091.63;5039769;28;20099;-80
2021/04/18 03:43:51;;;;;;;9.82;5.97;;;;;;;-143.98;100.00;68091.63;5038004;28;20053;-80
2021/04/18 03:46:17;;;;;;;10.40;6.07;;;;;;;-143.98;100.00;68091.63;5057620;28;20088;-80
2021/04/18 03:48:44;;;;;;;12.45;6.15;;;;;;;-143.98;100.00;68091.63;5025301;28;20087;-81
2021/04/18 03:51:11;;;;;;;19.38;6.75;;;;;;;-143.98;100.00;68091.63;5025788;28;20079;-81
2021/04/18 03:53:38;;;;;;;13.70;6.65;;;;;;;-143.98;100.00;68091.63;5034579;28;20049;-79
2021/04/18 03:56:06;;;;;;;14.18;6.18;;;;;;;-143.98;100.00;68091.63;5047687;28;20057;-82
2021/04/18 03:58:35;;;;;;;17.92;7.38;;;;;;;-143.98;100.00;68091.63;5027715;28;20063;-79
2021/04/18 04:01:12;;;;;;;13.68;6.35;;;;;;;-143.98;100.00;68091.63;5039174;28;20135;-81
2021/04/18 04:03:41;;;;;;;12.93;5.72;;;;;;;-143.98;100.00;68091.63;5042860;28;20053;-79
2021/04/18 04:06:08;;;;;;;12.18;6.25;;;;;;;-143.98;100.00;68091.63;5026187;28;20057;-81
2021/04/18 04:08:34;;;;;;;13.38;6.28;;;;;;;-143.98;100.00;68091.63;5026748;28;20053;-79
2021/04/18 04:11:03;;;;;;;13.43;6.40;;;;;;;-143.98;100.00;68091.63;5026048;28;20053;-79
2021/04/18 04:13:29;;;;;;;16.42;6.38;;;;;;;-143.98;100.00;68091.63;5023141;28;20126;-80
2021/04/18 04:15:56;;;;;;;13.98;6.47;;;;;;;-143.98;100.00;68091.63;5043533;28;20079;-79
2021/04/18 04:18:25;;;;;;;9.85;6.03;;;;;;;-143.98;100.00;68091.63;5027406;28;20048;-79
2021/04/18 04:20:51;;;;;;;15.57;6.30;;;;;;;-143.98;100.00;68091.63;5069374;28;20075;-79
2021/04/18 04:23:17;;;;;;;16.00;6.50;;;;;;;-143.98;100.00;68091.63;5040106;28;20053;-79
2021/04/18 04:25:46;;;;;;;13.30;6.45;;;;;;;-143.98;100.00;68091.63;5028277;28;20053;-79
2021/04/18 04:28:14;;;;;;;12.00;6.15;;;;;;;-143.98;100.00;68091.63;5059457;28;20655;-79
2021/04/18 04:30:41;;;;;;;12.52;5.78;;;;;;;-143.98;100.00;68091.63;5024235;28;20063;-80
2021/04/18 04:33:07;;;;;;;13.27;6.28;;;;;;;-143.98;100.00;68091.63;5057548;28;20061;-79
2021/04/18 04:35:33;;;;;;;13.35;6.45;;;;;;;-143.98;100.00;68091.63;5041380;28;20148;-79
2021/04/18 04:38:00;;;;;;;14.88;6.75;;;;;;;-143.98;100.00;68091.63;5040978;28;20049;-79
2021/04/18 04:40:28;;;;;;;16.00;6.70;;;;;;;-143.98;100.00;68091.63;5027228;28;20107;-79
2021/04/18 04:42:54;;;;;;;14.43;6.15;;;;;;;-143.98;100.00;68091.63;5045424;28;20057;-79
2021/04/18 04:45:21;;;;;;;13.48;6.05;;;;;;;-143.98;100.00;68091.63;5045977;28;20064;-79
2021/04/18 04:47:47;;;;;;;12.35;5.90;;;;;;;-143.98;100.00;68091.63;5031444;28;20061;-79
2021/04/18 04:50:17;;;;;;;13.60;6.85;;;;;;;-143.98;100.00;68091.63;5030824;28;20102;-79
2021/04/18 04:52:43;;;;;;;13.02;6.50;;;;;;;-143.98;100.00;68091.63;5057142;28;20048;-79
2021/04/18 04:55:10;;;;;;;12.27;5.82;;;;;;;-143.98;100.00;68091.63;5041675;28;20037;-78
2021/04/18 04:57:37;;;;;;;11.85;6.20;;;;;;;-143.98;100.00;68091.63;5058054;28;20063;-79
2021/04/18 05:00:13;;;;;;;14.23;6.30;;;;;;;-143.98;100.00;68091.63;5036848;28;20172;-79
2021/04/18 05:02:39;;;;;;;;;;;;;;;-143.98;100.00;68091.63;5027885;28;20056;-79
2021/04/18 05:05:06;;;;;;;15.13;6.25;;;;;;;-143.98;100.00;68091.63;5060789;28;19986;-79
2021/04/18 05:07:32;;;;;;;14.23;5.97;;;;;;;-143.98;100.00;68091.63;5043362;28;20052;-78
2021/04/18 05:10:12;;;;;;;10.98;5.80;;;;;;;-143.98;100.00;68091.63;5029896;28;20053;-78
2021/04/18 05:12:38;;;;;;;9.77;5.50;;;;;;;-143.98;100.00;68091.63;5030238;28;20135;-79
2021/04/18 05:15:05;;;;;;;11.02;5.45;;;;;;;-143.98;100.00;68091.63;5037872;28;20052;-78
2021/04/18 05:17:31;;;;;;;10.57;5.93;;;;;;;-143.98;100.00;68091.63;5054158;28;20064;-79
2021/04/18 05:19:58;;;;;;;11.30;6.03;;;;;;;-143.98;100.00;68091.63;5033109;28;20049;-79
2021/04/18 05:22:24;;;;;;;11.82;4.80;;;;;;;-143.98;100.00;68091.63;5045418;28;20072;-80
2021/04/18 05:24:50;;;;;;;13.95;5.13;;;;;;;-143.98;100.00;68091.63;5029579;28;20049;-79
2021/04/18 05:27:23;;;;;;;13.13;5.10;;;;;;;-143.98;100.00;68091.63;5045224;28;20638;-80
2021/04/18 05:29:53;;;;;;;7.63;4.63;;;;;;;-143.98;100.00;68091.63;5056339;28;20095;-80
2021/04/18 05:32:22;;;;;;;9.52;5.63;;;;;;;-143.98;100.00;68091.63;5043858;28;20067;-79
2021/04/18 05:34:49;;;;;;;10.38;5.13;;;;;;;-143.98;100.00;68091.63;5044047;28;20053;-80
2021/04/18 05:37:16;;;;;;;11.95;4.93;;;;;;;-143.98;100.00;68091.63;5044987;28;20056;-79
2021/04/18 05:39:42;;;;;;;14.50;4.93;;;;;;;-143.98;100.00;68091.63;5048537;28;20116;-79
2021/04/18 05:42:08;;;;;;;18.98;5.88;;;;;;;-143.98;100.00;68091.63;5053991;28;20052;-78
2021/04/18 05:44:37;;;;;;;9.25;4.28;;;;;;;-143.98;100.00;68091.63;5069488;28;20512;-79
2021/04/18 05:47:04;;;;;;;9.20;4.25;;;;;;;-143.98;100.00;68091.63;5029719;28;20139;-79
2021/04/18 05:49:30;;;;;;;10.82;4.60;;;;;;;-143.98;100.00;68091.63;5027518;28;20485;-79
2021/04/18 05:51:58;;;;;;;12.38;5.60;;;;;;;-143.98;100.00;68091.63;5048718;28;20069;-79
2021/04/18 05:54:24;;;;;;;12.73;5.63;;;;;;;-143.98;100.00;68091.63;5050927;28;20056;-79
2021/04/18 05:56:53;;;;;;;13.98;4.88;;;;;;;-143.98;100.00;68091.63;5045292;28;20376;-79
2021/04/18 05:59:20;;;;;;;10.38;4.80;;;;;;;-143.98;100.00;68091.63;5028693;28;20045;-79
2021/04/18 06:01:46;;;;;;;10.18;4.30;;;;;;;-143.98;100.00;68091.63;5043540;28;20123;-79
2021/04/18 06:04:13;;;;;;;10.88;4.85;;;;;;;-143.98;100.00;68091.63;5045328;28;20056;-79
2021/04/18 06:06:40;;;;;;;12.00;4.72;;;;;;;-143.98;100.00;68091.63;5044223;28;20135;-79
2021/04/18 06:09:09;;;;;;;12.38;4.07;;;;;;;-143.98;100.00;68091.63;5059151;28;20063;-79
2021/04/18 06:11:35;;;;;;;13.07;4.57;;;;;;;-143.98;100.00;68091.63;5023357;28;20067;-79
2021/04/18 06:14:06;;;;;;;14.32;4.88;;;;;;;-143.98;100.00;68091.63;5041815;28;20053;-80
2021/04/18 06:16:32;;;;;;;11.68;4.55;;;;;;;-143.98;100.00;68091.63;5058633;28;20126;-80
2021/04/18 06:18:59;;;;;;;11.98;4.35;;;;;;;-143.98;100.00;68091.63;5040357;28;20114;-80
2021/04/18 06:21:28;;;;;;;10.85;5.25;;;;;;;-143.98;100.00;68091.63;5024056;28;20072;-80
2021/04/18 06:23:54;;;;;;;7.65;4.63;;;;;;;-143.98;100.00;68091.63;5043055;28;20053;-81
2021/04/18 06:26:21;;;;;;;8.07;3.80;;;;;;;-143.98;100.00;68091.63;5040647;28;20052;-80
2021/04/18 06:28:47;;;;;;;13.80;4.53;;;;;;;-143.98;100.00;68091.63;5024533;28;20392;-81
2021/04/18 06:31:15;;;;;;;11.82;4.75;;;;;;;-143.98;100.00;68091.63;5040407;28;20091;-80
2021/04/18 06:33:44;;;;;;;8.65;3.95;;;;;;;-143.98;100.00;68091.63;5040311;28;20171;-81
2021/04/18 06:36:12;;;;;;;10.32;4.53;;;;;;;-143.98;100.00;68091.63;5039094;28;20060;-81
2021/04/18 06:38:41;;;;;;;12.13;4.20;;;;;;;-143.98;100.00;68091.63;5037939;28;20321;-80
2021/04/18 06:41:08;;;;;;;12.98;4.80;;;;;;;-143.98;100.00;68091.63;5039290;28;20341;-81
2021/04/18 06:43:35;;;;;;;7.25;4.25;;;;;;;-143.98;100.00;68091.63;5024335;28;20098;-79
2021/04/18 06:46:33;;;;;;;12.80;4.18;;;;;;;-143.98;100.00;68091.63;5023967;28;20143;-79
2021/04/18 06:49:01;;;;;;;8.97;4.03;;;;;;;-143.98;100.00;68091.63;5038541;28;20084;-80
2021/04/18 06:51:30;;;;;;;9.70;4.40;;;;;;;-143.98;100.00;68091.63;5040484;28;20053;-82
2021/04/18 06:53:56;;;;;;;11.32;4.88;;;;;;;-143.98;100.00;68091.63;5038536;28;20049;-80
2021/04/18 06:56:30;;;;;;;13.00;4.40;;;;;;;-143.98;100.00;68091.63;5021658;28;20056;-80
2021/04/18 06:59:04;;;;;;;9.48;4.68;;;;;;;-143.98;100.00;68091.63;5055032;28;20343;-80
2021/04/18 07:01:31;;;;;;;8.73;4.13;;;;;;;-143.98;100.00;68091.63;5039021;28;20067;-80
2021/04/18 07:04:13;;;;;;;12.25;4.75;;;;;;;-143.98;100.00;68091.63;5038168;28;20053;-80
2021/04/18 07:06:39;;;;;;;12.88;4.40;;;;;;;-143.98;100.00;68091.63;5037183;28;20061;-80
2021/04/18 07:09:05;;;;;;;13.07;4.25;;;;;;;-143.98;100.00;68091.63;5055054;28;20063;-80
2021/04/18 07:11:48;;;;;;;10.40;4.25;;;;;;;-143.98;100.00;68091.63;5020308;28;20056;-80
2021/04/18 07:14:25;;;;;;;10.00;3.80;;;;;;;-143.98;100.00;68091.63;5037371;28;20053;-81
2021/04/18 07:16:54;;;;;;;14.35;4.78;;;;;;;-143.98;100.00;68091.63;5038888;28;20048;-80
2021/04/18 07:19:25;;;;;;;12.43;4.47;;;;;;;-143.98;100.00;68091.63;5016397;28;20056;-80
2021/04/18 07:21:54;;;;;;;8.85;4.30;;;;;;;-143.98;100.00;68091.63;5035400;28;20079;-80
2021/04/18 07:24:52;;;;;;;10.57;4.10;;;;;;;-143.98;100.00;68091.63;5080094;28;20141;-80
2021/04/18 07:27:19;;;;;;;11.15;4.05;;;;;;;-143.98;100.00;68091.63;5047358;28;20055;-81
2021/04/18 07:29:59;;;;;;;8.57;4.35;;;;;;;-143.98;100.00;68091.63;5043724;28;20084;-81
2021/04/18 07:32:27;;;;;;;10.95;5.15;;;;;;;-143.98;100.00;68091.63;5075518;28;20604;-81
2021/04/18 07:35:00;;;;;;;15.52;5.18;;;;;;;-143.98;100.00;68091.63;5059895;28;20117;-81
2021/04/18 07:37:44;;;;;;;13.27;4.82;;;;;;;-143.98;100.00;68091.63;5047855;28;20032;-80
2021/04/18 07:40:33;;;;;;;13.27;4.10;;;;;;;-143.98;100.00;68091.63;5067890;28;20056;-81
2021/04/18 07:43:00;;;;;;;8.30;3.85;;;;;;;-143.98;100.00;68091.63;5081817;28;20105;-81
2021/04/18 07:45:26;;;;;;;9.05;4.32;;;;;;;-143.98;100.00;68091.63;5042483;28;20060;-81
2021/04/18 07:48:00;;;;;;;13.07;3.88;;;;;;;-143.98;100.00;68091.63;5059904;28;20336;-81
2021/04/18 07:50:28;;;;;;;9.20;4.15;;;;;;;-143.98;100.00;68091.63;5060601;28;20052;-80
2021/04/18 07:52:59;;;;;;;16.83;3.95;;;;;;;-143.98;100.00;68091.63;5028933;28;20125;-81
2021/04/18 07:55:29;;;;;;;9.43;4.38;;;;;;;-143.98;100.00;68091.63;5061710;28;20076;-80
2021/04/18 07:57:56;;;;;;;9.32;3.95;;;;;;;-143.98;100.00;68091.63;5078516;28;20048;-81
2021/04/18 08:00:23;;;;;;;7.38;3.50;;;;;;;-143.98;100.00;68091.63;5059676;28;20075;-81
2021/04/18 08:02:51;;;;;;;8.85;3.78;;;;;;;-143.98;100.00;68091.63;5056867;28;20049;-81
2021/04/18 08:05:25;;;;;;;10.65;4.20;;;;;;;-143.98;100.00;68091.63;5039786;28;20061;-81
2021/04/18 08:08:14;;;;;;;10.82;3.85;;;;;;;-143.98;100.00;68091.63;5040051;28;20146;-80
2021/04/18 08:10:46;;;;;;;8.77;3.80;;;;;;;-143.98;100.00;68091.63;5038931;28;20113;-80
2021/04/18 08:13:36;;;;;;;10.27;3.90;;;;;;;-143.98;100.00;68091.63;5055508;28;20282;-80
2021/04/18 08:16:04;;;;;;;8.55;3.65;;;;;;;-143.98;100.00;68091.63;5052203;28;20052;-80
2021/04/18 08:18:37;;;;;;;10.50;4.43;;;;;;;-143.98;100.00;68091.63;5041681;28;20281;-80
2021/04/18 08:21:24;;;;;;;8.77;4.22;;;;;;;-143.98;100.00;68091.63;5056459;28;20122;-80
2021/04/18 08:23:51;;;;;;;8.38;4.32;;;;;;;-143.98;100.00;68091.63;5024893;28;20048;-80
2021/04/18 08:26:19;;;;;;;14.48;5.22;;;;;;;-143.98;100.00;68091.63;5025837;28;20528;-80
2021/04/18 08:29:03;;;;;;;13.13;5.00;;;;;;;-143.98;100.00;68091.63;5039639;28;20053;-81
2021/04/18 08:31:48;;;;;;;10.15;4.47;;;;;;;-143.98;100.00;68091.63;5058813;28;20349;-81
2021/04/18 08:34:23;;;;;;;9.18;3.95;;;;;;;-143.98;100.00;68091.63;5044898;28;20049;-82
2021/04/18 08:36:53;;;;;;;8.05;3.85;;;;;;;-143.98;100.00;68091.63;5045561;28;20054;-82
2021/04/18 08:39:28;;;;;;;7.63;3.97;;;;;;;-143.98;100.00;68091.63;5032558;28;20298;-82
2021/04/18 08:42:00;;;;;;;12.55;4.28;;;;;;;-143.98;100.00;68091.63;5034697;28;20456;-81
2021/04/18 08:44:45;;;;;;;10.40;4.03;;;;;;;-143.98;100.00;68091.63;5018081;28;20212;-82
2021/04/18 08:47:16;;;;;;;9.18;4.03;;;;;;;-143.98;100.00;68091.63;5057152;28;20049;-81
2021/04/18 08:50:16;;;;;;;13.30;3.80;;;;;;;-143.98;100.00;68091.63;5040766;28;20057;-80
2021/04/18 08:52:45;;;;;;;9.02;4.22;;;;;;;-143.98;100.00;68091.63;5037172;28;20056;-80
2021/04/18 08:55:16;;;;;;;10.75;3.58;;;;;;;-143.98;100.00;68091.63;5058932;28;20053;-79
2021/04/18 08:57:42;;;;;;;8.50;3.65;;;;;;;-143.98;100.00;68091.63;5047874;28;20071;-79
2021/04/18 09:00:16;;;;;;;12.73;3.88;;;;;;;-143.98;100.00;68091.63;5032494;28;20048;-79
2021/04/18 09:02:52;;;;;;;11.27;4.28;;;;;;;-143.98;100.00;68091.63;5013139;28;20080;-80
2021/04/18 09:05:21;;;;;;;8.70;3.90;;;;;;;-143.98;100.00;68091.63;5038477;28;20531;-81
2021/04/18 09:07:56;;;;;;;10.73;4.28;;;;;;;-143.98;100.00;68091.63;5043983;28;20053;-80
2021/04/18 09:10:22;;;;;;;11.85;3.60;;;;;;;-143.98;100.00;68091.63;5042651;28;20060;-81
2021/04/18 09:12:58;;;;;;;9.77;3.70;;;;;;;-143.98;100.00;68091.63;5016845;28;20045;-81
2021/04/18 09:15:30;;;;;;;8.05;3.97;;;;;;;-143.98;100.00;68091.63;5027918;28;20057;-81
2021/04/18 09:18:00;;;;;;;10.93;3.78;;;;;;;-143.98;100.00;68091.63;5055040;28;20150;-82
2021/04/18 09:20:28;;;;;;;7.45;3.58;;;;;;;-143.98;100.00;68091.63;5052777;28;20087;-82
2021/04/18 09:23:04;;;;;;;6.50;3.72;;;;;;;-143.98;100.00;68091.63;5038367;28;20057;-82
2021/04/18 09:25:31;;;;;;;9.57;3.97;;;;;;;-143.98;100.00;68091.63;5052365;28;20060;-83
2021/04/18 09:28:04;;;;;;;10.85;3.90;;;;;;;-143.98;100.00;68091.63;5036799;28;20055;-82
2021/04/18 09:30:30;;;;;;;5.82;3.35;;;;;;;-143.98;100.00;68091.63;5053649;28;20572;-82
2021/04/18 09:32:59;;;;;;;12.00;3.33;;;;;;;-143.98;100.00;68091.63;5051571;28;20538;-82
2021/04/18 09:35:31;;;;;;;8.60;3.58;;;;;;;-143.98;100.00;68091.63;5035079;28;20285;-82
2021/04/18 09:38:00;;;;;;;8.35;4.03;;;;;;;-143.98;100.00;68091.63;5033972;28;20080;-81
2021/04/18 09:40:29;;;;;;;14.05;3.90;;;;;;;-143.98;100.00;68091.63;5051621;28;20083;-82
2021/04/18 09:43:04;;;;;;;6.90;3.53;;;;;;;-143.98;100.00;68091.63;5050416;28;20425;-82
2021/04/18 09:45:31;;;;;;;9.48;3.60;;;;;;;-143.98;100.00;68091.63;5050083;28;20061;-82
2021/04/18 09:48:15;;;;;;;11.02;4.03;;;;;;;-143.98;100.00;68091.63;5032279;28;20214;-82
2021/04/18 09:50:47;;;;;;;8.52;3.40;;;;;;;-143.98;100.00;68091.63;5048063;28;20044;-82
2021/04/18 09:53:35;;;;;;;8.02;3.78;;;;;;;-143.98;100.00;68091.63;5051421;28;20137;-83
2021/04/18 09:56:04;;;;;;;10.32;3.40;;;;;;;-143.98;100.00;68091.63;5047327;28;20092;-83
2021/04/18 09:58:35;;;;;;;8.85;3.63;;;;;;;-143.98;100.00;68091.63;5051297;28;20132;-81
2021/04/18 10:01:28;;;;;;;5.55;3.00;;;;;;;-143.98;100.00;68091.63;5050612;28;20199;-80
2021/04/18 10:03:57;;;;;;;9.73;3.80;;;;;;;-143.98;100.00;68091.63;5056294;28;20045;-82
2021/04/18 10:06:43;;;;;;;8.07;4.03;;;;;;;-143.98;100.00;68091.63;5053466;28;20084;-82
2021/04/18 10:09:15;;;;;;;9.00;3.40;;;;;;;-143.98;100.00;68091.63;5054581;28;20110;-82
2021/04/18 10:11:59;;;;;;;11.68;3.17;;;;;;;-143.98;100.00;68091.63;5064280;28;20061;-82
2021/04/18 10:14:25;;;;;;;6.57;3.38;;;;;;;-143.98;100.00;68091.63;5049358;28;20153;-82
2021/04/18 10:16:51;;;;;;;9.15;3.42;;;;;;;-143.98;100.00;68091.63;5030148;28;20045;-82
2021/04/18 10:19:20;;;;;;;8.63;3.55;;;;;;;-143.98;100.00;68091.63;5025811;28;20502;-83
2021/04/18 10:22:06;;;;;;;8.43;3.33;;;;;;;-143.98;100.00;68091.63;5040016;28;20241;-83
2021/04/18 10:24:44;;;;;;;9.93;3.17;;;;;;;-143.98;100.00;68091.63;5032440;28;20256;-82
2021/04/18 10:27:14;;;;;;;8.18;3.95;;;;;;;-143.98;100.00;68091.63;5045884;28;20056;-82
2021/04/18 10:29:42;;;;;;;10.45;3.65;;;;;;;-143.98;100.00;68091.63;5029288;28;20053;-82
2021/04/18 10:32:18;;;;;;;8.02;3.25;;;;;;;-143.98;100.00;68091.63;5019601;28;20136;-82
2021/04/18 10:34:50;;;;;;;6.65;3.08;;;;;;;-143.98;100.00;68091.63;5037022;28;20064;-82
2021/04/18 10:37:16;;;;;;;7.40;3.10;;;;;;;-143.98;100.00;68091.63;5029195;28;20060;-82
2021/04/18 10:39:45;;;;;;;7.15;2.88;;;;;;;-143.98;100.00;68091.63;5048421;28;20103;-82
2021/04/18 10:42:14;;;;;;;9.35;3.45;;;;;;;-143.98;100.00;68091.63;5055384;28;20091;-81
2021/04/18 10:44:41;;;;;;;6.88;3.00;;;;;;;-143.98;100.00;68091.63;5025652;28;20051;-82
2021/04/18 10:47:12;;;;;;;5.88;3.30;;;;;;;-143.98;100.00;68091.63;5050623;28;20053;-82
2021/04/18 10:49:38;;;;;;;8.32;3.35;;;;;;;-143.98;100.00;68091.63;5015692;28;20057;-82
2021/04/18 10:52:05;;;;;;;10.52;3.70;;;;;;;-143.98;100.00;68091.63;5049016;28;20061;-82
2021/04/18 10:54:39;;;;;;;6.05;3.63;;;;;;;-143.98;100.00;68091.63;5025195;28;20056;-82
2021/04/18 10:57:05;;;;;;;7.53;3.17;;;;;;;-143.98;100.00;68091.63;5049742;28;20072;-82
2021/04/18 10:59:34;;;;;;;7.22;3.50;;;;;;;-143.98;100.00;68091.63;5033184;28;20130;-82
2021/04/18 11:02:05;;;;;;;8.38;3.17;;;;;;;-143.98;100.00;68091.63;5019403;28;20118;-82
2021/04/18 11:04:32;;;;;;;7.55;3.20;;;;;;;-143.98;100.00;68091.63;5050070;28;20276;-82
2021/04/18 11:06:59;;;;;;;7.47;3.28;;;;;;;-143.98;100.00;68091.63;5049954;28;20113;-82
2021/04/18 11:09:25;;;;;;;8.13;2.83;;;;;;;-143.98;100.00;68091.63;5031526;28;20061;-82
2021/04/18 11:11:51;;;;;;;8.07;3.55;;;;;;;-143.98;100.00;68091.63;5016119;28;20407;-82
2021/04/18 11:14:21;;;;;;;6.60;3.20;;;;;;;-143.98;100.00;68091.63;5015718;28;20267;-82
2021/04/18 11:16:48;;;;;;;11.05;3.50;;;;;;;-143.98;100.00;68091.63;5032213;28;20087;-82